createdAt,value
2018-12-26T00:01:51.218Z,71.06
2018-12-26T00:04:18.988Z,71.70
2018-12-26T00:06:46.747Z,71.86
2018-12-26T00:09:14.537Z,71.26
2018-12-26T00:11:44.099Z,71.48
2018-12-26T00:14:11.846Z,71.15
2018-12-26T00:16:39.795Z,71.03
2018-12-26T00:19:07.561Z,70.55
2018-12-26T00:21:35.559Z,71.14
2018-12-26T00:24:03.476Z,71.47
2018-12-26T00:26:31.396Z,71.28
2018-12-26T00:28:59.185Z,70.64
2018-12-26T00:31:27.134Z,71.80
2018-12-26T00:33:56.043Z,71.67
2018-12-26T00:36:24.077Z,71.31
2018-12-26T00:38:51.847Z,71.17
2018-12-26T00:41:19.774Z,71.88
2018-12-26T00:43:47.763Z,71.79
2018-12-26T00:46:17.805Z,71.44
2018-12-26T00:48:45.781Z,70.99
2018-12-26T00:51:13.522Z,71.48
2018-12-26T00:53:41.295Z,71.74
2018-12-26T00:56:10.636Z,71.33
2018-12-26T00:58:38.870Z,71.28
2018-12-26T01:01:06.746Z,71.54
2018-12-26T01:03:34.527Z,71.61
2018-12-26T01:06:04.574Z,71.83
2018-12-26T01:08:32.339Z,71.12
2018-12-26T01:11:00.102Z,71.33
2018-12-26T01:13:28.880Z,71.77
2018-12-26T01:15:56.651Z,71.95
2018-12-26T01:18:24.918Z,72.03
2018-12-26T01:20:52.656Z,72.09
2018-12-26T01:23:20.404Z,72.03
2018-12-26T01:25:48.160Z,72.11
2018-12-26T01:28:16.127Z,72.21
2018-12-26T01:30:43.898Z,72.19
2018-12-26T01:33:11.822Z,72.90
2018-12-26T01:35:39.543Z,72.23
2018-12-26T01:38:07.488Z,72.38
2018-12-26T01:40:35.230Z,72.42
2018-12-26T01:43:03.222Z,72.65
2018-12-26T01:45:31.261Z,72.28
2018-12-26T01:47:59.173Z,72.46
2018-12-26T01:50:27.067Z,72.79
2018-12-26T01:52:55.413Z,71.85
2018-12-26T01:55:25.497Z,72.07
2018-12-26T01:57:53.424Z,72.29
2018-12-26T02:00:21.192Z,71.99
2018-12-26T02:02:48.946Z,72.56
2018-12-26T02:05:16.728Z,72.24
2018-12-26T02:07:44.667Z,72.50
2018-12-26T02:10:12.435Z,72.22
2018-12-26T02:12:40.381Z,72.14
2018-12-26T02:15:08.149Z,72.34
2018-12-26T02:17:41.955Z,72.15
2018-12-26T02:20:09.739Z,72.23
2018-12-26T02:22:37.526Z,72.65
2018-12-26T02:25:05.626Z,73.04
2018-12-26T02:27:33.441Z,73.23
2018-12-26T02:30:01.704Z,73.14
2018-12-26T02:32:30.421Z,73.06
2018-12-26T02:34:58.447Z,73.04
2018-12-26T02:37:26.183Z,73.00
2018-12-26T02:39:53.960Z,72.58
2018-12-26T02:42:21.680Z,72.84
2018-12-26T02:44:51.387Z,71.88
2018-12-26T02:47:19.141Z,71.57
2018-12-26T02:49:47.077Z,71.51
2018-12-26T02:52:15.020Z,71.11
2018-12-26T02:54:42.784Z,71.46
2018-12-26T02:57:11.285Z,70.79
2018-12-26T02:59:39.240Z,71.50
2018-12-26T03:02:07.210Z,71.92
2018-12-26T03:04:34.958Z,72.20
2018-12-26T03:07:02.958Z,72.15
2018-12-26T03:09:31.828Z,72.02
2018-12-26T03:11:59.815Z,72.26
2018-12-26T03:14:27.982Z,72.02
2018-12-26T03:16:58.614Z,70.57
2018-12-26T03:19:26.340Z,70.21
2018-12-26T03:21:55.905Z,70.80
2018-12-26T03:24:23.662Z,71.12
2018-12-26T03:26:56.409Z,71.19
2018-12-26T03:29:25.982Z,70.95
2018-12-26T03:31:54.046Z,70.62
2018-12-26T03:34:21.942Z,69.96
2018-12-26T03:36:49.946Z,69.32
2018-12-26T03:39:19.193Z,70.09
2018-12-26T03:41:46.948Z,70.44
2018-12-26T03:44:14.876Z,70.49
2018-12-26T03:46:43.468Z,70.05
2018-12-26T03:49:11.452Z,69.70
2018-12-26T03:51:41.138Z,69.51
2018-12-26T03:54:11.303Z,69.12
2018-12-26T03:56:39.220Z,68.34
2018-12-26T03:59:07.143Z,68.78
2018-12-26T04:01:35.079Z,68.33
2018-12-26T04:04:02.814Z,68.17
2018-12-26T04:06:30.767Z,68.00
2018-12-26T04:08:58.652Z,68.01
2018-12-26T04:11:26.598Z,67.59
2018-12-26T04:13:54.336Z,68.12
2018-12-26T04:16:22.121Z,68.35
2018-12-26T04:18:49.893Z,67.97
2018-12-26T04:21:17.931Z,67.71
2018-12-26T04:23:45.705Z,67.11
2018-12-26T04:26:13.470Z,66.40
2018-12-26T04:28:41.232Z,66.88
2018-12-26T04:31:09.155Z,67.13
2018-12-26T04:33:36.921Z,67.75
2018-12-26T04:36:04.691Z,66.75
2018-12-26T04:38:32.468Z,66.61
2018-12-26T04:41:00.223Z,66.53
2018-12-26T04:43:27.995Z,66.33
2018-12-26T04:45:55.953Z,66.19
2018-12-26T04:48:23.750Z,66.26
2018-12-26T04:50:51.700Z,65.73
2018-12-26T04:53:19.447Z,66.07
2018-12-26T04:55:47.192Z,65.92
2018-12-26T04:58:16.744Z,66.02
2018-12-26T05:00:44.685Z,66.12
2018-12-26T05:03:12.478Z,65.58
2018-12-26T05:05:40.538Z,65.94
2018-12-26T05:08:08.360Z,65.58
2018-12-26T05:10:36.134Z,65.64
2018-12-26T05:13:04.017Z,65.49
2018-12-26T05:15:31.897Z,65.39
2018-12-26T05:17:59.656Z,65.25
2018-12-26T05:20:27.574Z,65.18
2018-12-26T05:22:55.334Z,64.96
2018-12-26T05:25:23.100Z,65.42
2018-12-26T05:27:51.034Z,65.16
2018-12-26T05:30:18.976Z,64.94
2018-12-26T05:32:46.938Z,65.21
2018-12-26T05:35:14.876Z,64.96
2018-12-26T05:37:42.655Z,65.13
2018-12-26T05:40:10.426Z,65.39
2018-12-26T05:42:38.372Z,65.79
2018-12-26T05:45:08.904Z,64.99
2018-12-26T05:47:36.851Z,65.14
2018-12-26T05:50:04.787Z,65.79
2018-12-26T05:52:32.534Z,65.71
2018-12-26T05:55:02.316Z,65.96
2018-12-26T05:57:30.240Z,65.40
2018-12-26T05:59:59.434Z,65.86
2018-12-26T06:02:30.296Z,65.67
2018-12-26T06:04:58.061Z,65.55
2018-12-26T06:07:25.812Z,65.96
2018-12-26T06:09:53.609Z,66.69
2018-12-26T06:12:21.383Z,66.49
2018-12-26T06:14:49.148Z,66.55
2018-12-26T06:17:16.975Z,66.11
2018-12-26T06:19:44.746Z,66.04
2018-12-26T06:22:12.553Z,66.82
2018-12-26T06:24:40.355Z,67.17
2018-12-26T06:27:08.368Z,67.23
2018-12-26T06:29:36.122Z,68.14
2018-12-26T06:32:06.703Z,68.09
2018-12-26T06:34:36.585Z,68.54
2018-12-26T06:37:04.346Z,69.34
2018-12-26T06:39:32.150Z,68.71
2018-12-26T06:41:59.872Z,69.48
2018-12-26T06:44:27.659Z,69.97
2018-12-26T06:46:55.593Z,69.60
2018-12-26T06:49:25.245Z,69.82
2018-12-26T06:51:53.223Z,69.82
2018-12-26T06:54:20.989Z,69.65
2018-12-26T06:56:48.961Z,70.21
2018-12-26T06:59:16.953Z,70.63
2018-12-26T07:01:44.889Z,71.64
2018-12-26T07:04:14.912Z,71.50
2018-12-26T07:06:42.877Z,71.58
2018-12-26T07:09:10.658Z,71.80
2018-12-26T07:11:38.634Z,71.63
2018-12-26T07:14:06.583Z,71.93
2018-12-26T07:16:34.342Z,72.35
2018-12-26T07:19:02.278Z,73.09
2018-12-26T07:21:30.044Z,72.93
2018-12-26T07:23:57.827Z,73.08
2018-12-26T07:26:25.605Z,73.57
2018-12-26T07:28:53.344Z,73.76
2018-12-26T07:31:21.120Z,74.50
2018-12-26T07:33:48.848Z,74.45
2018-12-26T07:36:16.632Z,74.73
2018-12-26T07:38:44.688Z,76.00
2018-12-26T07:41:12.476Z,75.95
2018-12-26T07:43:40.503Z,76.12
2018-12-26T07:46:08.256Z,76.42
2018-12-26T07:48:36.239Z,76.12
2018-12-26T07:51:05.864Z,76.20
2018-12-26T07:53:33.648Z,76.98
2018-12-26T07:56:01.396Z,77.29
2018-12-26T07:58:29.184Z,77.57
2018-12-26T08:00:56.926Z,77.19
2018-12-26T08:03:24.917Z,77.95
2018-12-26T08:05:52.685Z,78.39
2018-12-26T08:08:20.463Z,78.06
2018-12-26T08:10:48.267Z,77.28
2018-12-26T08:13:16.173Z,78.14
2018-12-26T08:15:43.932Z,78.26
2018-12-26T08:18:11.733Z,78.50
2018-12-26T08:20:39.677Z,77.77
2018-12-26T08:23:07.516Z,78.42
2018-12-26T08:25:35.287Z,78.38
2018-12-26T08:28:03.100Z,78.13
2018-12-26T08:30:33.831Z,78.09
2018-12-26T08:33:01.787Z,78.21
2018-12-26T08:35:29.698Z,78.22
2018-12-26T08:37:57.611Z,78.16
2018-12-26T08:40:25.431Z,78.10
2018-12-26T08:42:53.157Z,76.96
2018-12-26T08:45:21.160Z,77.09
2018-12-26T08:47:48.889Z,76.57
2018-12-26T08:50:17.744Z,76.21
2018-12-26T08:52:47.702Z,76.87
2018-12-26T08:55:15.544Z,76.51
2018-12-26T08:57:43.298Z,76.61
2018-12-26T09:00:13.515Z,75.85
2018-12-26T09:02:41.356Z,75.86
2018-12-26T09:05:09.186Z,75.43
2018-12-26T09:07:36.953Z,74.89
2018-12-26T09:10:05.349Z,74.76
2018-12-26T09:12:33.179Z,75.44
2018-12-26T09:15:01.090Z,75.03
2018-12-26T09:17:28.869Z,75.22
2018-12-26T09:19:56.651Z,74.94
2018-12-26T09:22:24.449Z,74.84
2018-12-26T09:24:52.230Z,74.46
2018-12-26T09:27:20.003Z,74.69
2018-12-26T09:29:47.989Z,74.71
2018-12-26T09:32:15.771Z,75.45
2018-12-26T09:34:43.935Z,76.69
2018-12-26T09:37:13.629Z,77.18
2018-12-26T09:39:41.413Z,77.40
2018-12-26T09:42:09.199Z,76.06
2018-12-26T09:44:37.190Z,77.12
2018-12-26T09:47:05.005Z,77.38
2018-12-26T09:49:33.354Z,77.59
2018-12-26T09:52:01.292Z,77.89
2018-12-26T09:54:29.035Z,78.05
2018-12-26T09:56:56.957Z,77.96
2018-12-26T09:59:24.918Z,77.79
2018-12-26T10:01:54.373Z,77.18
2018-12-26T10:04:22.292Z,77.17
2018-12-26T10:06:51.027Z,77.83
2018-12-26T10:09:18.827Z,77.88
2018-12-26T10:11:48.874Z,78.97
2018-12-26T10:14:16.689Z,79.03
2018-12-26T10:16:44.481Z,78.42
2018-12-26T10:19:12.288Z,78.69
2018-12-26T10:21:40.230Z,78.35
2018-12-26T10:24:08.028Z,77.89
2018-12-26T10:26:35.821Z,77.87
2018-12-26T10:29:03.626Z,78.16
2018-12-26T10:31:31.457Z,76.54
2018-12-26T10:33:59.454Z,77.28
2018-12-26T10:36:27.238Z,78.02
2018-12-26T10:38:55.059Z,78.04
2018-12-26T10:41:22.849Z,77.35
2018-12-26T10:43:50.672Z,77.45
2018-12-26T10:46:19.779Z,77.85
2018-12-26T10:48:47.557Z,78.49
2018-12-26T10:51:15.352Z,78.32
2018-12-26T10:53:43.139Z,78.55
2018-12-26T10:56:10.900Z,77.66
2018-12-26T10:58:38.666Z,77.93
2018-12-26T11:01:06.438Z,78.65
2018-12-26T11:03:34.233Z,78.63
2018-12-26T11:06:02.030Z,78.52
2018-12-26T11:08:29.811Z,78.51
2018-12-26T11:10:57.592Z,79.50
2018-12-26T11:13:25.374Z,79.87
2018-12-26T11:15:53.136Z,80.64
2018-12-26T11:18:21.098Z,80.83
2018-12-26T11:20:49.178Z,80.64
2018-12-26T11:23:16.943Z,81.71
2018-12-26T11:25:44.736Z,81.92
2018-12-26T11:28:12.483Z,82.44
2018-12-26T11:30:40.256Z,82.27
2018-12-26T11:33:08.049Z,81.11
2018-12-26T11:35:35.857Z,80.49
2018-12-26T11:38:03.607Z,80.51
2018-12-26T11:40:31.395Z,81.17
2018-12-26T11:42:59.132Z,80.49
2018-12-26T11:45:27.220Z,80.37
2018-12-26T11:47:55.015Z,80.10
2018-12-26T11:50:22.815Z,80.06
2018-12-26T11:52:50.583Z,80.18
2018-12-26T11:55:18.402Z,79.91
2018-12-26T11:57:46.291Z,80.69
2018-12-26T12:00:14.092Z,81.07
2018-12-26T12:02:41.856Z,80.87
2018-12-26T12:05:09.619Z,81.33
2018-12-26T12:07:37.387Z,80.76
2018-12-26T12:10:05.563Z,80.66
2018-12-26T12:12:33.728Z,81.15
2018-12-26T12:15:01.520Z,80.99
2018-12-26T12:17:29.338Z,81.47
2018-12-26T12:19:57.071Z,81.48
2018-12-26T12:22:25.269Z,81.24
2018-12-26T12:24:53.058Z,80.99
2018-12-26T12:27:20.851Z,81.51
2018-12-26T12:29:48.620Z,81.54
2018-12-26T12:32:16.388Z,81.33
2018-12-26T12:34:44.170Z,82.30
2018-12-26T12:37:13.454Z,82.48
2018-12-26T12:39:41.698Z,81.63
2018-12-26T12:42:09.731Z,81.66
2018-12-26T12:44:37.587Z,82.47
2018-12-26T12:47:05.546Z,83.19
2018-12-26T12:49:33.567Z,83.47
2018-12-26T12:52:01.895Z,83.30
2018-12-26T12:54:29.694Z,83.36
2018-12-26T12:56:57.481Z,83.22
2018-12-26T12:59:26.392Z,83.08
2018-12-26T13:01:54.268Z,82.86
2018-12-26T13:04:22.016Z,82.58
2018-12-26T13:06:49.803Z,82.81
2018-12-26T13:09:17.537Z,83.40
2018-12-26T13:11:45.325Z,83.67
2018-12-26T13:14:15.258Z,83.73
2018-12-26T13:16:43.027Z,83.29
2018-12-26T13:19:10.743Z,82.23
2018-12-26T13:21:38.479Z,82.85
2018-12-26T13:24:07.645Z,83.27
2018-12-26T13:26:35.448Z,82.90
2018-12-26T13:29:03.226Z,82.89
2018-12-26T13:31:31.032Z,83.41
2018-12-26T13:33:58.909Z,84.24
2018-12-26T13:36:26.747Z,84.08
2018-12-26T13:38:54.555Z,84.09
2018-12-26T13:41:22.337Z,84.63
2018-12-26T13:43:50.172Z,84.48
2018-12-26T13:46:18.034Z,84.04
2018-12-26T13:48:45.809Z,84.38
2018-12-26T13:51:14.703Z,84.44
2018-12-26T13:53:42.457Z,84.36
2018-12-26T13:56:10.230Z,84.21
2018-12-26T13:58:37.999Z,84.46
2018-12-26T14:01:05.769Z,84.76
2018-12-26T14:03:33.561Z,84.32
2018-12-26T14:06:01.369Z,83.79
2018-12-26T14:08:29.215Z,84.42
2018-12-26T14:10:56.999Z,84.56
2018-12-26T14:13:24.971Z,84.35
2018-12-26T14:15:55.581Z,84.70
2018-12-26T14:18:26.313Z,84.79
2018-12-26T14:20:54.122Z,84.48
2018-12-26T14:23:22.161Z,84.27
2018-12-26T14:25:49.906Z,84.26
2018-12-26T14:28:17.681Z,84.37
2018-12-26T14:30:45.583Z,84.43
2018-12-26T14:33:13.360Z,84.63
2018-12-26T14:35:50.295Z,84.36
2018-12-26T14:38:21.222Z,84.08
2018-12-26T14:40:48.966Z,83.88
2018-12-26T14:43:19.558Z,84.23
2018-12-26T14:45:47.318Z,84.64
2018-12-26T14:48:15.268Z,84.17
2018-12-26T14:50:43.292Z,83.85
2018-12-26T14:53:11.062Z,83.66
2018-12-26T14:55:40.996Z,83.49
2018-12-26T14:58:08.762Z,83.49
2018-12-26T15:00:36.804Z,83.94
2018-12-26T15:03:06.354Z,83.51
2018-12-26T15:05:34.137Z,83.45
2018-12-26T15:08:01.896Z,83.85
2018-12-26T15:10:29.700Z,83.74
2018-12-26T15:12:58.852Z,84.07
2018-12-26T15:15:26.858Z,84.03
2018-12-26T15:17:54.850Z,84.06
2018-12-26T15:20:23.126Z,83.66
2018-12-26T15:22:52.074Z,84.13
2018-12-26T15:25:20.222Z,84.04
2018-12-26T15:27:47.989Z,84.07
2018-12-26T15:30:15.956Z,84.19
2018-12-26T15:32:43.722Z,84.35
2018-12-26T15:35:13.639Z,83.51
2018-12-26T15:37:41.658Z,83.37
2018-12-26T15:40:10.216Z,83.70
2018-12-26T15:42:37.972Z,83.91
2018-12-26T15:45:05.960Z,83.97
2018-12-26T15:47:33.727Z,84.16
2018-12-26T15:50:01.679Z,83.88
2018-12-26T15:52:29.565Z,84.34
2018-12-26T15:54:57.325Z,84.36
2018-12-26T15:57:25.277Z,84.07
2018-12-26T15:59:53.205Z,83.96
2018-12-26T16:02:21.285Z,83.68
2018-12-26T16:04:49.267Z,84.14
2018-12-26T16:07:17.210Z,83.73
2018-12-26T16:09:45.039Z,84.11
2018-12-26T16:12:12.875Z,83.89
2018-12-26T16:14:40.818Z,83.71
2018-12-26T16:17:08.745Z,83.74
2018-12-26T16:19:36.492Z,83.82
2018-12-26T16:22:04.270Z,83.61
2018-12-26T16:24:32.101Z,83.42
2018-12-26T16:27:00.693Z,83.18
2018-12-26T16:29:28.487Z,83.66
2018-12-26T16:31:56.439Z,83.89
2018-12-26T16:34:24.311Z,84.05
2018-12-26T16:36:52.302Z,83.67
2018-12-26T16:39:20.110Z,83.41
2018-12-26T16:41:50.691Z,83.12
2018-12-26T16:44:18.458Z,83.50
2018-12-26T16:46:46.232Z,83.50
2018-12-26T16:49:14.008Z,84.45
2018-12-26T16:51:41.786Z,84.33
2018-12-26T16:54:09.546Z,83.91
2018-12-26T16:56:37.519Z,83.89
2018-12-26T16:59:05.332Z,83.40
2018-12-26T17:01:33.294Z,83.48
2018-12-26T17:04:01.058Z,84.00
2018-12-26T17:06:28.874Z,83.70
2018-12-26T17:08:56.640Z,83.41
2018-12-26T17:11:24.456Z,83.54
2018-12-26T17:13:52.252Z,83.04
2018-12-26T17:16:20.254Z,83.31
2018-12-26T17:18:48.069Z,83.43
2018-12-26T17:21:16.092Z,82.99
2018-12-26T17:23:43.836Z,83.22
2018-12-26T17:26:11.620Z,83.46
2018-12-26T17:28:39.436Z,83.44
2018-12-26T17:31:07.398Z,83.38
2018-12-26T17:33:35.578Z,83.75
2018-12-26T17:36:03.578Z,84.11
2018-12-26T17:38:34.487Z,83.63
2018-12-26T17:41:02.709Z,83.30
2018-12-26T17:43:30.648Z,83.19
2018-12-26T17:45:58.416Z,83.25
2018-12-26T17:48:26.696Z,83.52
2018-12-26T17:51:01.852Z,83.57
2018-12-26T17:54:01.955Z,83.51
2018-12-26T17:57:07.524Z,83.48
2018-12-26T18:00:40.243Z,83.16
2018-12-26T18:03:08.178Z,83.39
2018-12-26T18:05:35.950Z,82.76
2018-12-26T18:08:03.754Z,83.23
2018-12-26T18:10:31.512Z,83.26
2018-12-26T18:12:59.633Z,83.39
2018-12-26T18:15:27.396Z,83.04
2018-12-26T18:17:58.011Z,82.84
2018-12-26T18:20:25.783Z,83.33
2018-12-26T18:22:53.530Z,83.33
2018-12-26T18:25:22.660Z,83.55
2018-12-26T18:27:50.671Z,83.39
2018-12-26T18:30:18.429Z,83.72
2018-12-26T18:32:46.213Z,83.91
2018-12-26T18:35:13.991Z,83.83
2018-12-26T18:37:42.198Z,83.31
2018-12-26T18:40:09.983Z,82.81
2018-12-26T18:42:37.924Z,82.82
2018-12-26T18:45:08.550Z,82.83
2018-12-26T18:47:37.329Z,82.90
2018-12-26T18:50:09.036Z,82.99
2018-12-26T18:52:36.986Z,83.04
2018-12-26T18:55:05.626Z,82.80
2018-12-26T18:57:33.612Z,83.15
2018-12-26T19:00:01.390Z,83.53
2018-12-26T19:02:29.149Z,83.54
2018-12-26T19:04:57.403Z,83.31
2018-12-26T19:07:25.496Z,83.17
2018-12-26T19:09:53.226Z,82.83
2018-12-26T19:12:21.010Z,83.21
2018-12-26T19:14:48.914Z,83.08
2018-12-26T19:17:17.150Z,83.16
2018-12-26T19:19:44.924Z,83.62
2018-12-26T19:22:12.880Z,82.95
2018-12-26T19:24:40.911Z,83.33
2018-12-26T19:27:08.718Z,83.26
2018-12-26T19:29:36.736Z,83.26
2018-12-26T19:32:04.779Z,83.12
2018-12-26T19:34:32.553Z,83.35
2018-12-26T19:37:02.213Z,83.17
2018-12-26T19:39:30.097Z,82.98
2018-12-26T19:41:57.819Z,83.03
2018-12-26T19:44:25.785Z,83.23
2018-12-26T19:46:54.564Z,83.16
2018-12-26T19:49:22.565Z,82.57
2018-12-26T19:51:50.330Z,82.54
2018-12-26T19:54:18.251Z,82.44
2018-12-26T19:56:46.021Z,82.59
2018-12-26T19:59:13.847Z,82.73
2018-12-26T20:01:48.174Z,82.49
2018-12-26T20:04:11.424Z,82.27
2018-12-26T20:06:39.325Z,82.18
2018-12-26T20:09:07.075Z,82.30
2018-12-26T20:11:35.072Z,82.13
2018-12-26T20:14:03.081Z,82.24
2018-12-26T20:16:30.845Z,82.15
2018-12-26T20:19:02.289Z,82.65
2018-12-26T20:21:30.095Z,82.84
2018-12-26T20:23:57.847Z,82.75
2018-12-26T20:26:26.765Z,82.74
2018-12-26T20:28:54.856Z,82.67
2018-12-26T20:31:22.667Z,83.04
2018-12-26T20:33:50.652Z,82.66
2018-12-26T20:36:18.423Z,82.56
2018-12-26T20:38:46.388Z,82.43
2018-12-26T20:41:14.358Z,82.61
2018-12-26T20:43:42.298Z,82.59
2018-12-26T20:46:10.068Z,82.54
2018-12-26T20:48:39.333Z,82.86
2018-12-26T20:51:09.946Z,82.79
2018-12-26T20:53:37.894Z,82.80
2018-12-26T20:56:05.878Z,82.87
2018-12-26T20:58:33.888Z,82.84
2018-12-26T21:01:01.664Z,83.09
2018-12-26T21:03:32.570Z,82.72
2018-12-26T21:06:00.518Z,82.69
2018-12-26T21:08:28.292Z,82.76
2018-12-26T21:10:56.118Z,82.77
2018-12-26T21:13:23.903Z,82.92
2018-12-26T21:15:52.067Z,82.87
2018-12-26T21:18:19.845Z,83.03
2018-12-26T21:20:50.806Z,82.84
2018-12-26T21:23:18.628Z,83.19
2018-12-26T21:25:46.851Z,82.90
2018-12-26T21:28:14.775Z,82.93
2018-12-26T21:30:42.796Z,83.04
2018-12-26T21:33:10.578Z,82.75
2018-12-26T21:35:38.482Z,82.66
2018-12-26T21:38:06.276Z,82.93
2018-12-26T21:40:34.048Z,82.83
2018-12-26T21:43:01.871Z,83.10
2018-12-26T21:45:29.772Z,83.18
2018-12-26T21:47:58.627Z,83.13
2018-12-26T21:50:26.642Z,82.73
2018-12-26T21:52:55.728Z,82.95
2018-12-26T21:55:23.670Z,82.98
2018-12-26T21:57:51.408Z,82.36
2018-12-26T22:00:19.246Z,82.65
2018-12-26T22:02:46.995Z,82.86
2018-12-26T22:05:14.953Z,82.57
2018-12-26T22:07:42.732Z,83.10
2018-12-26T22:10:10.515Z,82.50
2018-12-26T22:12:38.256Z,82.62
2018-12-26T22:15:06.691Z,82.64
2018-12-26T22:17:34.650Z,82.82
2018-12-26T22:20:02.624Z,82.76
2018-12-26T22:22:30.565Z,82.61
2018-12-26T22:25:00.411Z,82.02
2018-12-26T22:27:28.231Z,82.41
2018-12-26T22:29:56.008Z,82.27
2018-12-26T22:32:30.642Z,82.22
2018-12-26T22:34:53.838Z,81.92
2018-12-26T22:37:21.711Z,82.24
2018-12-26T22:39:49.483Z,82.12
2018-12-26T22:42:17.443Z,82.18
2018-12-26T22:44:45.215Z,82.31
2018-12-26T22:47:13.155Z,82.21
2018-12-26T22:49:40.911Z,82.09
2018-12-26T22:52:08.653Z,81.90
2018-12-26T22:54:36.366Z,82.29
2018-12-26T22:57:04.372Z,82.40
2018-12-26T22:59:32.126Z,81.91
2018-12-26T23:01:59.886Z,81.51
2018-12-26T23:04:27.602Z,81.21
2018-12-26T23:06:55.604Z,81.76
2018-12-26T23:09:23.470Z,81.91
2018-12-26T23:11:51.386Z,82.16
2018-12-26T23:14:19.172Z,81.61
2018-12-26T23:16:46.914Z,82.08
2018-12-26T23:19:15.406Z,81.87
2018-12-26T23:21:43.260Z,82.05
2018-12-26T23:24:11.006Z,81.66
2018-12-26T23:26:38.798Z,81.65
2018-12-26T23:29:06.564Z,81.62
2018-12-26T23:31:34.350Z,82.00
2018-12-26T23:34:02.140Z,82.16
2018-12-26T23:36:31.342Z,82.23
2018-12-26T23:38:59.268Z,81.73
2018-12-26T23:41:27.218Z,81.64
2018-12-26T23:43:55.019Z,82.26
2018-12-26T23:46:22.932Z,82.28
2018-12-26T23:48:50.807Z,81.91
2018-12-26T23:51:18.544Z,81.81
2018-12-26T23:53:46.536Z,81.76
2018-12-26T23:56:17.433Z,81.81
2018-12-26T23:58:45.715Z,82.36
